createdAt,value
2023-01-30T00:01:16.430Z,17.30
2023-01-30T00:03:46.280Z,16.40
2023-01-30T00:06:15.082Z,16.00
2023-01-30T00:08:43.324Z,15.98
2023-01-30T00:11:15.406Z,14.15
2023-01-30T00:13:44.379Z,14.32
2023-01-30T00:16:13.488Z,12.43
2023-01-30T00:18:42.368Z,12.90
2023-01-30T00:21:14.813Z,14.18
2023-01-30T00:23:43.378Z,13.30
2023-01-30T00:26:13.166Z,15.25
2023-01-30T00:28:42.046Z,15.02
2023-01-30T00:31:10.858Z,15.07
2023-01-30T00:33:39.896Z,16.92
2023-01-30T00:36:08.849Z,16.75
2023-01-30T00:38:39.530Z,15.80
2023-01-30T00:41:10.668Z,14.35
2023-01-30T00:44:10.787Z,15.32
2023-01-30T00:46:58.777Z,15.00
2023-01-30T00:49:27.563Z,13.75
2023-01-30T00:51:55.772Z,13.95
2023-01-30T00:54:25.432Z,15.10
2023-01-30T00:56:53.682Z,14.98
2023-01-30T00:59:21.948Z,14.85
2023-01-30T01:01:50.004Z,12.70
2023-01-30T01:04:18.191Z,14.05
2023-01-30T01:06:46.771Z,15.95
2023-01-30T01:09:14.894Z,15.13
2023-01-30T01:11:44.354Z,16.00
2023-01-30T01:14:12.451Z,16.02
2023-01-30T01:16:41.153Z,13.85
2023-01-30T01:19:09.315Z,13.55
2023-01-30T01:21:37.721Z,13.50
2023-01-30T01:24:13.908Z,11.98
2023-01-30T01:26:42.944Z,13.40
2023-01-30T01:29:15.135Z,13.68
2023-01-30T01:31:46.448Z,13.48
2023-01-30T01:34:14.546Z,14.20
2023-01-30T01:36:54.616Z,12.70
2023-01-30T01:39:23.864Z,11.80
2023-01-30T01:41:51.370Z,12.20
2023-01-30T01:44:21.020Z,13.27
2023-01-30T01:46:52.996Z,12.80
2023-01-30T01:49:25.833Z,12.70
2023-01-30T01:52:04.048Z,12.80
2023-01-30T01:54:37.803Z,13.15
2023-01-30T01:57:13.839Z,16.10
2023-01-30T01:59:48.436Z,16.40
2023-01-30T02:02:18.479Z,14.60
2023-01-30T02:05:03.005Z,16.13
2023-01-30T02:07:38.164Z,14.82
2023-01-30T02:10:09.761Z,17.15
2023-01-30T02:12:39.296Z,16.42
2023-01-30T02:15:09.721Z,18.08
2023-01-30T02:17:39.039Z,16.33
2023-01-30T02:20:18.036Z,15.50
2023-01-30T02:23:18.498Z,16.02
2023-01-30T02:26:27.429Z,17.58
2023-01-30T02:29:43.866Z,18.15
2023-01-30T02:32:21.396Z,17.00
2023-01-30T02:34:57.120Z,18.23
2023-01-30T02:37:36.583Z,17.65
2023-01-30T02:40:16.798Z,18.38
2023-01-30T02:42:52.869Z,15.68
2023-01-30T02:45:28.569Z,15.30
2023-01-30T02:48:02.541Z,15.52
2023-01-30T02:50:36.969Z,14.65
2023-01-30T02:53:06.404Z,15.05
2023-01-30T02:55:35.791Z,15.80
2023-01-30T02:58:05.741Z,15.82
2023-01-30T03:01:03.839Z,15.23
2023-01-30T03:03:51.567Z,14.23
2023-01-30T03:06:35.252Z,14.73
2023-01-30T03:09:12.139Z,13.85
2023-01-30T03:11:48.089Z,14.75
2023-01-30T03:14:24.389Z,15.60
2023-01-30T03:16:55.661Z,11.90
2023-01-30T03:19:25.091Z,11.45
2023-01-30T03:21:53.337Z,12.57
2023-01-30T03:24:22.135Z,12.23
2023-01-30T03:26:57.421Z,11.63
2023-01-30T03:29:25.687Z,11.30
2023-01-30T03:31:54.040Z,11.63
2023-01-30T03:34:22.147Z,10.98
2023-01-30T03:36:52.158Z,11.45
2023-01-30T03:39:20.508Z,11.15
2023-01-30T03:41:48.563Z,11.95
2023-01-30T03:44:18.746Z,12.05
2023-01-30T03:46:47.314Z,10.88
2023-01-30T03:49:15.576Z,12.38
2023-01-30T03:51:43.976Z,11.68
2023-01-30T03:54:13.645Z,12.55
2023-01-30T03:56:41.974Z,12.85
2023-01-30T03:59:10.229Z,13.30
2023-01-30T04:01:44.229Z,12.13
2023-01-30T04:04:12.550Z,13.32
2023-01-30T04:06:40.813Z,11.43
2023-01-30T04:09:08.917Z,12.65
2023-01-30T04:11:50.383Z,11.80
2023-01-30T04:14:19.724Z,12.52
2023-01-30T04:17:07.746Z,12.40
2023-01-30T04:19:56.194Z,11.88
2023-01-30T04:22:24.354Z,12.45
2023-01-30T04:24:52.746Z,11.82
2023-01-30T04:27:23.214Z,12.13
2023-01-30T04:30:12.646Z,11.07
2023-01-30T04:32:41.262Z,11.35
2023-01-30T04:35:11.949Z,11.65
2023-01-30T04:37:40.903Z,12.25
2023-01-30T04:40:12.087Z,10.85
2023-01-30T04:42:41.821Z,12.25
2023-01-30T04:45:30.443Z,12.40
2023-01-30T04:47:58.420Z,11.32
2023-01-30T04:50:27.003Z,11.23
2023-01-30T04:52:55.257Z,11.10
2023-01-30T04:55:23.813Z,11.18
2023-01-30T04:57:53.381Z,10.70
2023-01-30T05:00:21.908Z,11.25
2023-01-30T05:02:56.131Z,10.73
2023-01-30T05:05:25.167Z,11.10
2023-01-30T05:07:53.654Z,12.18
2023-01-30T05:10:22.492Z,10.63
2023-01-30T05:12:50.806Z,9.90
2023-01-30T05:15:20.778Z,10.80
2023-01-30T05:17:48.947Z,9.43
2023-01-30T05:20:17.457Z,10.25
2023-01-30T05:22:45.432Z,10.10
2023-01-30T05:25:13.432Z,10.73
2023-01-30T05:27:41.429Z,9.90
2023-01-30T05:30:10.738Z,10.57
2023-01-30T05:32:40.199Z,9.88
2023-01-30T05:35:09.203Z,10.57
2023-01-30T05:37:37.865Z,10.15
2023-01-30T05:40:07.210Z,10.68
2023-01-30T05:42:35.161Z,9.90
2023-01-30T05:45:03.032Z,10.20
2023-01-30T05:47:31.177Z,9.77
2023-01-30T05:50:00.699Z,9.63
2023-01-30T05:52:28.955Z,8.20
2023-01-30T05:54:56.900Z,9.95
2023-01-30T05:57:24.991Z,7.57
2023-01-30T05:59:53.106Z,9.07
2023-01-30T06:02:21.103Z,10.95
2023-01-30T06:05:17.300Z,9.25
2023-01-30T06:07:45.343Z,8.80
2023-01-30T06:10:13.752Z,9.82
2023-01-30T06:12:41.702Z,8.95
2023-01-30T06:15:10.983Z,9.65
2023-01-30T06:17:43.088Z,9.10
2023-01-30T06:20:12.248Z,9.45
2023-01-30T06:22:41.669Z,7.78
2023-01-30T06:25:10.363Z,8.38
2023-01-30T06:27:38.373Z,8.55
2023-01-30T06:30:07.105Z,8.40
2023-01-30T06:32:35.356Z,8.90
2023-01-30T06:35:03.358Z,9.60
2023-01-30T06:37:31.688Z,9.48
2023-01-30T06:40:01.036Z,10.25
2023-01-30T06:42:28.980Z,7.43
2023-01-30T06:44:57.156Z,9.38
2023-01-30T06:47:31.301Z,8.35
2023-01-30T06:49:59.455Z,8.77
2023-01-30T06:52:27.494Z,9.07
2023-01-30T06:54:55.627Z,8.15
2023-01-30T06:57:24.923Z,7.95
2023-01-30T06:59:53.118Z,7.55
2023-01-30T07:02:21.219Z,8.27
2023-01-30T07:04:49.192Z,7.70
2023-01-30T07:07:17.408Z,8.27
2023-01-30T07:09:47.711Z,8.02
2023-01-30T07:12:19.252Z,8.15
2023-01-30T07:14:48.918Z,8.32
2023-01-30T07:17:17.530Z,8.23
2023-01-30T07:19:45.935Z,7.07
2023-01-30T07:22:14.491Z,8.45
2023-01-30T07:24:43.019Z,7.93
2023-01-30T07:27:12.178Z,6.30
2023-01-30T07:29:41.215Z,9.13
2023-01-30T07:32:16.035Z,7.72
2023-01-30T07:34:44.144Z,7.90
2023-01-30T07:37:12.279Z,7.13
2023-01-30T07:39:40.598Z,8.40
2023-01-30T07:42:09.072Z,7.88
2023-01-30T07:44:37.034Z,8.75
2023-01-30T07:47:05.038Z,7.50
2023-01-30T07:49:34.341Z,7.38
2023-01-30T07:52:02.271Z,7.50
2023-01-30T07:54:30.632Z,7.45
2023-01-30T07:56:58.530Z,7.20
2023-01-30T07:59:27.566Z,7.53
2023-01-30T08:01:56.938Z,7.07
2023-01-30T08:04:25.602Z,6.35
2023-01-30T08:06:55.223Z,7.78
2023-01-30T08:09:23.300Z,7.00
2023-01-30T08:11:51.426Z,6.53
2023-01-30T08:14:19.650Z,7.05
2023-01-30T08:16:49.174Z,6.45
2023-01-30T08:19:17.488Z,6.90
2023-01-30T08:21:45.465Z,8.35
2023-01-30T08:24:15.112Z,5.60
2023-01-30T08:26:43.412Z,7.00
2023-01-30T08:29:11.445Z,8.23
2023-01-30T08:31:39.862Z,7.72
2023-01-30T08:34:07.991Z,6.78
2023-01-30T08:36:36.256Z,4.38
2023-01-30T08:39:04.401Z,4.13
2023-01-30T08:41:33.769Z,3.75
2023-01-30T08:44:02.196Z,3.78
2023-01-30T08:46:30.257Z,3.75
2023-01-30T08:48:58.585Z,3.40
2023-01-30T08:51:26.727Z,3.25
2023-01-30T08:53:54.915Z,3.47
2023-01-30T08:56:23.131Z,4.75
2023-01-30T08:58:52.610Z,4.05
2023-01-30T09:01:21.251Z,5.13
2023-01-30T09:03:49.308Z,5.35
2023-01-30T09:06:17.515Z,5.95
2023-01-30T09:08:45.409Z,4.60
2023-01-30T09:11:13.687Z,4.32
2023-01-30T09:13:43.770Z,3.40
2023-01-30T09:16:14.237Z,4.15
2023-01-30T09:18:44.270Z,3.30
2023-01-30T09:21:13.586Z,3.45
2023-01-30T09:23:42.666Z,3.38
2023-01-30T09:26:11.029Z,2.55
2023-01-30T09:29:08.399Z,2.85
2023-01-30T09:31:38.058Z,2.55
2023-01-30T09:34:06.543Z,2.72
2023-01-30T09:36:34.651Z,2.22
2023-01-30T09:39:02.667Z,1.58
2023-01-30T09:41:54.576Z,2.20
2023-01-30T09:44:45.012Z,2.50
2023-01-30T09:47:16.951Z,2.67
2023-01-30T09:49:57.487Z,2.30
2023-01-30T09:52:33.386Z,2.22
2023-01-30T09:55:12.866Z,1.85
2023-01-30T09:57:42.011Z,2.00
2023-01-30T10:00:16.674Z,2.40
2023-01-30T10:02:55.194Z,1.60
2023-01-30T10:05:26.161Z,1.30
2023-01-30T10:08:22.317Z,1.63
2023-01-30T10:11:09.002Z,1.30
2023-01-30T10:13:55.607Z,1.23
2023-01-30T10:16:29.445Z,0.90
2023-01-30T10:19:34.836Z,0.70
2023-01-30T10:22:12.062Z,0.80
2023-01-30T10:24:51.326Z,0.70
2023-01-30T10:27:22.072Z,0.60
2023-01-30T10:29:57.259Z,0.80
2023-01-30T10:32:31.697Z,0.68
2023-01-30T10:35:06.853Z,0.98
2023-01-30T10:37:49.738Z,0.70
2023-01-30T10:40:25.409Z,0.80
2023-01-30T10:43:02.755Z,0.70
2023-01-30T10:45:44.304Z,0.80
2023-01-30T10:48:42.952Z,0.70
2023-01-30T10:51:24.809Z,0.70
2023-01-30T10:53:59.210Z,0.70
2023-01-30T10:56:36.979Z,0.70
2023-01-30T10:59:20.101Z,0.70
2023-01-30T11:01:58.299Z,0.77
2023-01-30T11:04:31.680Z,0.82
2023-01-30T11:07:03.195Z,0.65
2023-01-30T11:09:43.398Z,0.60
2023-01-30T11:12:11.835Z,0.90
2023-01-30T11:14:58.754Z,0.80
2023-01-30T11:17:33.360Z,0.60
2023-01-30T11:20:07.582Z,0.70
2023-01-30T11:22:38.519Z,0.60
2023-01-30T11:25:15.030Z,0.70
2023-01-30T11:27:44.714Z,0.90
2023-01-30T11:30:16.417Z,0.68
2023-01-30T11:32:46.125Z,0.90
2023-01-30T11:35:29.035Z,0.70
2023-01-30T11:38:13.125Z,0.70
2023-01-30T11:40:41.655Z,0.75
2023-01-30T11:43:14.340Z,0.60
2023-01-30T11:45:45.538Z,0.93
2023-01-30T11:48:31.544Z,0.68
2023-01-30T11:51:05.712Z,0.73
2023-01-30T11:53:39.384Z,0.80
2023-01-30T11:56:33.678Z,0.75
2023-01-30T11:59:06.205Z,0.80
2023-01-30T12:01:36.761Z,0.90
2023-01-30T12:04:09.707Z,0.70
2023-01-30T12:06:39.837Z,0.93
2023-01-30T12:09:32.531Z,1.00
2023-01-30T12:12:00.763Z,0.70
2023-01-30T12:14:38.533Z,0.80
2023-01-30T12:17:15.904Z,0.88
2023-01-30T12:19:57.676Z,0.60
2023-01-30T12:22:33.542Z,0.80
2023-01-30T12:25:10.469Z,0.80
2023-01-30T12:27:51.863Z,0.70
2023-01-30T12:30:29.384Z,0.60
2023-01-30T12:35:42.206Z,0.70
2023-01-30T12:38:19.288Z,0.70
2023-01-30T12:41:02.861Z,0.65
2023-01-30T12:43:52.620Z,0.50
2023-01-30T12:46:36.857Z,0.60
2023-01-30T12:49:20.396Z,0.57
2023-01-30T12:52:02.712Z,0.70
2023-01-30T12:54:58.400Z,0.70
2023-01-30T12:57:39.815Z,0.60
2023-01-30T13:00:25.804Z,0.60
2023-01-30T13:03:10.415Z,0.50
2023-01-30T13:05:44.951Z,0.73
2023-01-30T13:08:40.093Z,0.70
2023-01-30T13:11:22.028Z,0.73
2023-01-30T13:13:58.133Z,0.63
2023-01-30T13:16:33.656Z,1.52
2023-01-30T13:19:10.973Z,0.88
2023-01-30T13:21:47.680Z,0.80
2023-01-30T13:24:35.324Z,1.30
2023-01-30T13:27:07.951Z,1.20
2023-01-30T13:29:40.655Z,1.42
2023-01-30T13:32:16.727Z,2.03
2023-01-30T13:34:47.879Z,1.90
2023-01-30T13:37:17.811Z,1.98
2023-01-30T13:39:50.459Z,1.60
2023-01-30T13:42:31.113Z,1.70
2023-01-30T13:45:01.800Z,2.03
2023-01-30T13:47:53.667Z,2.75
2023-01-30T13:50:35.590Z,2.38
2023-01-30T13:53:10.316Z,2.65
2023-01-30T13:55:47.076Z,2.78
2023-01-30T13:58:27.677Z,2.90
2023-01-30T14:00:58.339Z,2.88
2023-01-30T14:03:30.505Z,2.53
2023-01-30T14:06:27.800Z,3.75
2023-01-30T14:08:59.400Z,2.47
2023-01-30T14:11:35.691Z,2.67
2023-01-30T14:14:08.039Z,2.28
2023-01-30T14:16:47.018Z,3.22
2023-01-30T14:19:40.240Z,2.80
2023-01-30T14:22:24.695Z,2.00
2023-01-30T14:25:41.696Z,3.05
2023-01-30T14:28:52.167Z,2.90
2023-01-30T14:31:55.121Z,3.17
2023-01-30T14:34:48.408Z,3.10
2023-01-30T14:37:57.643Z,3.20
2023-01-30T14:40:35.511Z,3.58
2023-01-30T14:43:35.139Z,3.33
2023-01-30T14:46:07.510Z,3.60
2023-01-30T14:48:44.656Z,3.85
2023-01-30T14:51:22.663Z,4.82
2023-01-30T14:53:55.207Z,4.45
2023-01-30T14:56:39.803Z,4.47
2023-01-30T14:59:12.339Z,4.40
2023-01-30T15:02:06.836Z,5.53
2023-01-30T15:04:44.318Z,5.60
2023-01-30T15:07:16.265Z,5.35
2023-01-30T15:09:52.761Z,5.47
2023-01-30T15:12:50.449Z,5.20
2023-01-30T15:15:27.579Z,5.20
2023-01-30T15:18:08.968Z,5.35
2023-01-30T15:20:53.473Z,5.25
2023-01-30T15:23:47.599Z,5.88
2023-01-30T15:26:29.435Z,5.57
2023-01-30T15:29:24.019Z,5.13
2023-01-30T15:31:56.376Z,5.50
2023-01-30T15:34:24.876Z,4.90
2023-01-30T15:36:54.626Z,4.90
2023-01-30T15:39:24.664Z,4.90
2023-01-30T15:41:57.299Z,5.43
2023-01-30T15:44:54.858Z,5.70
2023-01-30T15:47:43.875Z,5.07
2023-01-30T15:50:12.322Z,5.40
2023-01-30T15:52:46.515Z,5.18
2023-01-30T15:55:18.651Z,5.25
2023-01-30T15:57:52.948Z,5.75
2023-01-30T16:00:28.028Z,5.70
2023-01-30T16:02:56.854Z,5.75
2023-01-30T16:05:26.773Z,6.05
2023-01-30T16:07:57.568Z,6.55
2023-01-30T16:10:27.994Z,5.95
2023-01-30T16:12:58.304Z,6.15
2023-01-30T16:15:33.067Z,5.50
2023-01-30T16:18:05.779Z,7.10
2023-01-30T16:20:55.235Z,5.10
2023-01-30T16:23:34.956Z,4.55
2023-01-30T16:26:04.671Z,5.60
2023-01-30T16:28:33.658Z,4.30
2023-01-30T16:31:03.567Z,7.00
2023-01-30T16:33:36.564Z,4.80
2023-01-30T16:36:06.395Z,5.72
2023-01-30T16:38:44.302Z,6.20
2023-01-30T16:41:29.079Z,4.25
2023-01-30T16:44:10.128Z,4.88
2023-01-30T16:46:53.227Z,4.47
2023-01-30T16:49:32.468Z,4.63
2023-01-30T16:52:03.536Z,5.78
2023-01-30T16:54:34.898Z,5.22
2023-01-30T16:57:04.319Z,5.65
2023-01-30T16:59:34.500Z,4.72
2023-01-30T17:02:05.517Z,4.55
2023-01-30T17:04:35.889Z,4.82
2023-01-30T17:07:05.780Z,5.60
2023-01-30T17:09:46.067Z,4.60
2023-01-30T17:12:54.189Z,4.57
2023-01-30T17:15:43.480Z,4.93
2023-01-30T17:18:13.068Z,4.93
2023-01-30T17:20:45.521Z,6.10
2023-01-30T17:23:18.372Z,4.97
2023-01-30T17:25:50.462Z,6.57
2023-01-30T17:28:24.154Z,5.15
2023-01-30T17:30:52.391Z,5.88
2023-01-30T17:33:20.470Z,6.35
2023-01-30T17:35:48.863Z,6.45
2023-01-30T17:38:16.828Z,6.10
2023-01-30T17:40:45.504Z,6.47
2023-01-30T17:43:15.808Z,5.72
2023-01-30T17:45:44.131Z,5.75
2023-01-30T17:48:13.713Z,6.32
2023-01-30T17:50:42.331Z,5.32
2023-01-30T17:53:10.325Z,5.40
2023-01-30T17:55:38.784Z,5.70
2023-01-30T17:58:06.951Z,6.38
2023-01-30T18:00:36.294Z,6.03
2023-01-30T18:03:04.600Z,5.53
2023-01-30T18:05:32.655Z,5.93
2023-01-30T18:08:01.649Z,5.63
2023-01-30T18:10:30.288Z,7.25
2023-01-30T18:12:58.568Z,5.95
2023-01-30T18:15:26.633Z,6.63
2023-01-30T18:17:56.688Z,7.30
2023-01-30T18:20:24.711Z,5.60
2023-01-30T18:22:52.706Z,5.95
2023-01-30T18:25:21.062Z,6.30
2023-01-30T18:27:49.646Z,6.10
2023-01-30T18:30:18.518Z,5.78
2023-01-30T18:32:52.862Z,6.63
2023-01-30T18:35:23.424Z,6.05
2023-01-30T18:37:51.997Z,7.05
2023-01-30T18:40:46.458Z,6.00
2023-01-30T18:43:14.495Z,6.10
2023-01-30T18:45:42.776Z,6.97
2023-01-30T18:48:10.771Z,6.90
2023-01-30T18:50:40.134Z,6.45
2023-01-30T18:53:08.517Z,6.95
2023-01-30T18:55:36.563Z,6.57
2023-01-30T18:58:04.690Z,6.57
2023-01-30T19:00:32.654Z,6.85
2023-01-30T19:03:00.664Z,7.47
2023-01-30T19:05:28.715Z,7.97
2023-01-30T19:07:58.133Z,8.15
2023-01-30T19:10:26.097Z,6.25
2023-01-30T19:13:34.162Z,7.22
2023-01-30T19:16:03.624Z,6.18
2023-01-30T19:18:33.310Z,5.88
2023-01-30T19:21:02.292Z,7.22
2023-01-30T19:23:33.943Z,6.60
2023-01-30T19:26:02.216Z,7.35
2023-01-30T19:28:31.821Z,7.47
2023-01-30T19:31:00.068Z,6.20
2023-01-30T19:33:28.327Z,6.78
2023-01-30T19:35:56.580Z,8.25
2023-01-30T19:38:24.719Z,7.40
2023-01-30T19:40:54.778Z,8.68
2023-01-30T19:43:22.933Z,8.50
2023-01-30T19:45:58.238Z,8.35
2023-01-30T19:48:26.617Z,8.25
2023-01-30T19:50:55.211Z,9.98
2023-01-30T19:53:23.247Z,7.50
2023-01-30T19:55:51.576Z,7.90
2023-01-30T19:58:21.221Z,8.70
2023-01-30T20:00:50.225Z,8.88
2023-01-30T20:03:18.207Z,7.28
2023-01-30T20:05:46.238Z,8.93
2023-01-30T20:08:25.379Z,8.82
2023-01-30T20:11:02.311Z,7.80
2023-01-30T20:13:31.897Z,8.00
2023-01-30T20:16:06.188Z,8.43
2023-01-30T20:18:37.562Z,8.20
2023-01-30T20:21:07.594Z,7.25
2023-01-30T20:23:36.636Z,7.75
2023-01-30T20:26:05.890Z,8.73
2023-01-30T20:28:35.864Z,8.25
2023-01-30T20:31:10.161Z,7.53
2023-01-30T20:33:38.634Z,8.02
2023-01-30T20:36:09.128Z,9.98
2023-01-30T20:38:39.954Z,9.20
2023-01-30T20:41:10.332Z,9.88
2023-01-30T20:43:41.000Z,9.85
2023-01-30T20:46:12.023Z,9.70
2023-01-30T20:48:40.650Z,8.70
2023-01-30T20:51:10.074Z,7.35
2023-01-30T20:53:39.599Z,10.07
2023-01-30T20:56:10.545Z,8.48
2023-01-30T20:58:40.665Z,8.13
2023-01-30T21:01:09.867Z,8.52
2023-01-30T21:03:38.399Z,7.10
2023-01-30T21:06:06.829Z,7.20
2023-01-30T21:08:35.485Z,8.13
2023-01-30T21:11:08.363Z,7.35
2023-01-30T21:13:37.360Z,7.05
2023-01-30T21:16:09.784Z,6.05
2023-01-30T21:18:39.889Z,6.90
2023-01-30T21:21:08.457Z,6.97
2023-01-30T21:23:37.019Z,7.22
2023-01-30T21:26:06.322Z,6.85
2023-01-30T21:28:34.779Z,5.90
2023-01-30T21:31:08.969Z,6.65
2023-01-30T21:33:37.821Z,7.63
2023-01-30T21:36:06.901Z,6.90
2023-01-30T21:38:52.860Z,6.47
2023-01-30T21:41:40.423Z,8.27
2023-01-30T21:44:09.193Z,7.35
2023-01-30T21:46:41.376Z,8.23
2023-01-30T21:49:09.636Z,7.68
2023-01-30T21:51:38.962Z,8.60
2023-01-30T21:54:07.332Z,9.10
2023-01-30T21:56:36.714Z,8.50
2023-01-30T21:59:06.627Z,9.57
2023-01-30T22:01:36.604Z,9.48
2023-01-30T22:04:08.875Z,9.80
2023-01-30T22:06:41.275Z,8.25
2023-01-30T22:09:14.281Z,8.75
2023-01-30T22:11:43.281Z,8.48
2023-01-30T22:14:14.403Z,7.38
2023-01-30T22:16:42.794Z,9.93
2023-01-30T22:19:13.110Z,8.50
2023-01-30T22:21:41.784Z,8.57
2023-01-30T22:24:11.714Z,8.52
2023-01-30T22:26:40.210Z,8.18
2023-01-30T22:29:09.147Z,8.73
2023-01-30T22:31:40.786Z,7.70
2023-01-30T22:34:09.117Z,9.75
2023-01-30T22:36:38.825Z,9.27
2023-01-30T22:39:07.596Z,8.73
2023-01-30T22:41:37.166Z,7.18
2023-01-30T22:44:08.937Z,9.30
2023-01-30T22:46:39.799Z,7.50
2023-01-30T22:49:10.487Z,7.15
2023-01-30T22:51:43.219Z,7.03
2023-01-30T22:54:16.137Z,7.40
2023-01-30T22:56:46.269Z,6.95
2023-01-30T22:59:15.354Z,7.55
2023-01-30T23:01:46.651Z,7.38
2023-01-30T23:04:16.867Z,6.70
2023-01-30T23:06:47.489Z,6.90
2023-01-30T23:09:18.173Z,5.78
2023-01-30T23:12:09.218Z,7.25
2023-01-30T23:14:38.394Z,6.68
2023-01-30T23:17:21.801Z,6.35
2023-01-30T23:19:50.357Z,7.30
2023-01-30T23:22:19.850Z,6.68
2023-01-30T23:24:49.165Z,8.48
2023-01-30T23:27:17.329Z,8.25
2023-01-30T23:29:45.652Z,6.65
2023-01-30T23:32:14.971Z,6.22
2023-01-30T23:34:43.217Z,7.75
2023-01-30T23:37:11.381Z,6.82
2023-01-30T23:39:41.145Z,6.50
2023-01-30T23:42:09.321Z,7.45
2023-01-30T23:44:37.796Z,7.32
2023-01-30T23:47:06.142Z,7.93
2023-01-30T23:49:34.382Z,7.15
2023-01-30T23:52:02.615Z,7.05
2023-01-30T23:54:30.721Z,7.60
2023-01-30T23:57:00.297Z,8.20
2023-01-30T23:59:28.290Z,7.32
